Time;durP1;ratioP1;P1;durP2;ratioP2;P2;SDS_P1;SDS_P2;PMS_P1;PMS_P2;Temp;Humidity;BMP_temperature;BMP_pressure;BME280_temperature;BME280_humidity;BME280_pressure;Samples;Min_cycle;Max_cycle;Signal;HPM_P1;HPM_P2
2022/02/16 00:00:26;;;;;;;34.20;9.40;;;6.70;99.90;;;;;;5076230;28;20055;-82
2022/02/16 00:02:52;;;;;;;29.63;9.30;;;6.70;99.90;;;;;;5087817;28;20091;-82
2022/02/16 00:05:18;;;;;;;35.92;8.60;;;6.70;99.90;;;;;;5093360;28;20146;-81
2022/02/16 00:07:44;;;;;;;36.55;8.45;;;6.70;99.90;;;;;;5102259;28;20070;-82
2022/02/16 00:10:12;;;;;;;35.30;9.38;;;6.60;99.90;;;;;;5075898;28;20360;-82
2022/02/16 00:12:39;;;;;;;29.27;8.27;;;6.80;99.90;;;;;;5123668;27;20055;-82
2022/02/16 00:15:06;;;;;;;31.08;8.50;;;6.60;99.90;;;;;;5110005;28;20115;-83
2022/02/16 00:17:32;;;;;;;29.48;9.05;;;6.60;99.90;;;;;;5109801;28;20507;-83
2022/02/16 00:19:58;;;;;;;36.92;8.15;;;6.60;99.90;;;;;;5089864;28;20032;-83
2022/02/16 00:22:23;;;;;;;35.00;7.72;;;6.60;99.90;;;;;;5095080;28;20101;-84
2022/02/16 00:24:49;;;;;;;28.52;8.05;;;7.10;99.90;;;;;;5070240;28;20096;-84
2022/02/16 00:27:15;;;;;;;35.42;7.88;;;6.70;99.90;;;;;;5090773;28;20082;-84
2022/02/16 00:29:41;;;;;;;29.33;7.35;;;6.80;99.90;;;;;;5072041;28;20048;-84
2022/02/16 00:32:07;;;;;;;33.05;7.60;;;6.80;99.90;;;;;;5095008;28;20028;-84
2022/02/16 00:34:32;;;;;;;31.98;6.78;;;6.60;99.90;;;;;;5126877;27;20048;-84
2022/02/16 00:36:58;;;;;;;26.10;6.22;;;6.60;99.90;;;;;;5076942;28;20413;-84
2022/02/16 00:39:24;;;;;;;33.05;8.00;;;6.60;99.90;;;;;;5094934;28;20057;-84
2022/02/16 00:41:49;;;;;;;39.67;7.72;;;6.50;99.90;;;;;;5094479;28;20042;-84
2022/02/16 00:44:15;;;;;;;35.08;7.63;;;6.50;99.90;;;;;;5066999;28;20043;-83
2022/02/16 00:46:41;;;;;;;35.92;7.40;;;6.50;99.90;;;;;;5092301;28;20059;-84
2022/02/16 00:49:09;;;;;;;34.92;7.40;;;6.50;99.90;;;;;;5101570;28;20066;-84
2022/02/16 00:51:38;;;;;;;33.38;7.18;;;6.50;99.90;;;;;;5075503;28;20093;-84
2022/02/16 00:54:04;;;;;;;27.23;7.80;;;6.50;99.90;;;;;;5089283;28;20039;-84
2022/02/16 00:56:30;;;;;;;30.05;6.97;;;6.60;99.90;;;;;;5105234;28;20032;-84
2022/02/16 00:58:55;;;;;;;33.83;7.05;;;6.50;99.90;;;;;;5082184;28;20578;-84
2022/02/16 01:01:21;;;;;;;34.58;7.10;;;6.50;99.90;;;;;;5094306;28;20075;-83
2022/02/16 01:03:47;;;;;;;32.47;6.82;;;6.50;99.90;;;;;;5089061;28;20519;-84
2022/02/16 01:06:12;;;;;;;27.50;6.22;;;6.50;99.90;;;;;;5093773;28;20071;-84
2022/02/16 01:08:38;;;;;;;29.63;5.90;;;6.50;99.90;;;;;;5071203;28;20028;-84
2022/02/16 01:11:04;;;;;;;22.60;5.18;;;6.50;99.90;;;;;;5088908;28;20043;-84
2022/02/16 01:13:30;;;;;;;28.77;5.30;;;6.50;99.90;;;;;;5091537;28;20058;-84
2022/02/16 01:15:56;;;;;;;30.02;6.20;;;6.50;99.90;;;;;;5093427;28;20482;-83
2022/02/16 01:18:22;;;;;;;33.45;5.50;;;6.50;99.90;;;;;;5092694;28;20050;-84
2022/02/16 01:20:47;;;;;;;38.22;5.97;;;7.00;99.90;;;;;;5086241;28;20039;-84
2022/02/16 01:23:13;;;;;;;31.08;5.13;;;6.40;99.90;;;;;;5125818;27;20050;-84
2022/02/16 01:25:39;;;;;;;35.65;6.03;;;6.40;99.90;;;;;;5073114;28;20091;-83
2022/02/16 01:28:05;;;;;;;26.13;5.75;;;6.60;99.90;;;;;;5125146;27;20040;-83
2022/02/16 01:30:31;;;;;;;30.40;5.72;;;6.40;99.90;;;;;;5081389;28;20039;-83
2022/02/16 01:32:56;;;;;;;32.42;5.93;;;6.40;99.90;;;;;;5093421;28;20100;-83
2022/02/16 01:35:22;;;;;;;34.05;5.50;;;6.70;99.90;;;;;;5084873;28;20451;-83
2022/02/16 01:37:48;;;;;;;36.65;7.07;;;6.40;99.90;;;;;;5127315;27;20040;-83
2022/02/16 01:40:13;;;;;;;38.95;7.28;;;6.40;99.90;;;;;;5122347;27;20039;-83
2022/02/16 01:42:39;;;;;;;38.97;6.63;;;6.40;99.90;;;;;;5126352;27;20051;-81
2022/02/16 01:45:06;;;;;;;42.88;7.30;;;6.40;99.90;;;;;;5056936;28;20123;-83
2022/02/16 01:47:31;;;;;;;34.28;7.72;;;6.40;99.90;;;;;;5081484;28;20032;-82
2022/02/16 01:49:57;;;;;;;50.38;8.68;;;6.50;99.90;;;;;;5083761;28;20388;-84
2022/02/16 01:52:23;;;;;;;40.75;8.23;;;6.50;99.90;;;;;;5109277;28;20039;-83
2022/02/16 01:54:50;;;;;;;54.15;9.13;;;6.50;99.90;;;;;;5088859;28;20123;-83
2022/02/16 01:57:15;;;;;;;52.70;9.18;;;6.70;99.90;;;;;;5090697;28;20331;-83
2022/02/16 01:59:41;;;;;;;37.20;8.55;;;6.50;99.90;;;;;;5074020;28;20048;-83
2022/02/16 02:02:07;;;;;;;47.72;9.00;;;6.50;99.90;;;;;;5106700;28;20093;-83
2022/02/16 02:04:33;;;;;;;39.33;7.63;;;6.50;99.90;;;;;;5096931;28;20048;-82
2022/02/16 02:06:59;;;;;;;39.70;8.10;;;6.50;99.90;;;;;;5068160;28;20517;-82
2022/02/16 02:09:25;;;;;;;42.70;7.80;;;6.50;99.90;;;;;;5098376;28;20475;-82
2022/02/16 02:11:51;;;;;;;45.65;7.40;;;6.50;99.90;;;;;;5125796;28;20114;-83
2022/02/16 02:14:16;;;;;;;38.72;7.72;;;6.50;99.90;;;;;;5120109;28;20188;-83
2022/02/16 02:16:42;;;;;;;40.08;6.78;;;7.00;99.90;;;;;;5086050;28;20219;-82
2022/02/16 02:19:10;;;;;;;34.80;6.18;;;6.60;99.90;;;;;;5072981;28;20047;-83
2022/02/16 02:21:36;;;;;;;38.58;6.78;;;6.50;99.90;;;;;;5091596;28;20119;-83
2022/02/16 02:24:02;;;;;;;40.80;6.30;;;6.50;99.90;;;;;;5084054;28;20070;-84
2022/02/16 02:26:28;;;;;;;47.05;6.55;;;6.50;99.90;;;;;;5088922;28;20502;-82
2022/02/16 02:28:54;;;;;;;35.45;6.85;;;6.60;99.90;;;;;;5081236;28;20067;-82
2022/02/16 02:31:28;;;;;;;31.60;6.38;;;6.60;99.90;;;;;;5094488;28;20062;-82
2022/02/16 02:33:53;;;;;;;35.08;6.18;;;6.60;99.90;;;;;;5092533;28;20068;-82
2022/02/16 02:36:19;;;;;;;34.70;6.13;;;6.50;99.90;;;;;;5124673;28;20048;-82
2022/02/16 02:38:45;;;;;;;33.58;6.18;;;7.30;99.90;;;;;;5078982;28;20048;-83
2022/02/16 02:41:10;;;;;;;34.33;6.03;;;6.90;99.90;;;;;;5091234;28;20040;-82
2022/02/16 02:43:42;;;;;;;37.38;5.05;;;6.60;99.90;;;;;;5091837;28;20039;-82
2022/02/16 02:46:08;;;;;;;40.88;5.55;;;6.60;99.90;;;;;;5091236;28;20040;-82
2022/02/16 02:48:34;;;;;;;27.38;5.15;;;6.70;99.90;;;;;;5125910;28;20032;-82
2022/02/16 02:51:00;;;;;;;36.22;5.05;;;6.70;99.90;;;;;;5107353;28;20196;-82
2022/02/16 02:53:25;;;;;;;28.92;4.90;;;7.00;99.90;;;;;;5083517;28;20036;-83
2022/02/16 02:55:53;;;;;;;29.80;5.68;;;6.80;99.90;;;;;;5090638;28;20093;-83
2022/02/16 02:58:19;;;;;;;33.22;6.18;;;6.70;99.90;;;;;;5125820;28;20118;-83
2022/02/16 03:00:45;;;;;;;36.15;6.50;;;6.80;99.90;;;;;;5090089;28;20040;-83
2022/02/16 03:03:11;;;;;;;32.40;7.63;;;6.80;99.90;;;;;;5101587;28;20044;-82
2022/02/16 03:05:36;;;;;;;42.35;7.50;;;6.80;99.90;;;;;;5060950;28;20054;-82
2022/02/16 03:08:02;;;;;;;33.25;7.88;;;6.90;99.90;;;;;;5124410;28;20036;-82
2022/02/16 03:10:29;;;;;;;33.35;8.00;;;6.80;99.90;;;;;;5092981;28;20044;-82
2022/02/16 03:12:55;;;;;;;35.78;7.53;;;6.90;99.90;;;;;;5068865;28;20052;-82
2022/02/16 03:15:20;;;;;;;34.05;9.23;;;6.80;99.90;;;;;;5128907;27;20036;-82
2022/02/16 03:17:46;;;;;;;40.10;8.95;;;6.90;99.90;;;;;;5094587;28;20397;-82
2022/02/16 03:20:12;;;;;;;30.95;10.05;;;6.90;99.90;;;;;;5127454;27;20035;-82
2022/02/16 03:22:38;;;;;;;27.13;9.68;;;7.00;99.90;;;;;;5071965;28;20374;-82
2022/02/16 03:25:05;;;;;;;37.35;10.93;;;7.00;99.90;;;;;;5093522;28;20057;-82
2022/02/16 03:27:31;;;;;;;38.08;12.35;;;7.00;99.90;;;;;;5126354;27;20050;-82
2022/02/16 03:29:57;;;;;;;39.80;14.35;;;7.00;99.90;;;;;;5094948;28;20036;-83
2022/02/16 03:32:23;;;;;;;37.20;14.50;;;7.10;99.90;;;;;;5077791;28;20043;-82
2022/02/16 03:34:48;;;;;;;36.17;15.35;;;7.10;99.90;;;;;;5075426;28;20127;-83
2022/02/16 03:37:15;;;;;;;36.65;15.65;;;7.10;99.90;;;;;;5128966;27;20050;-83
2022/02/16 03:39:41;;;;;;;38.08;16.50;;;7.30;99.90;;;;;;5069233;28;20036;-83
2022/02/16 03:42:07;;;;;;;35.15;16.52;;;7.10;99.90;;;;;;5095180;28;20044;-83
2022/02/16 03:44:32;;;;;;;34.47;17.25;;;7.20;99.90;;;;;;5089345;28;20395;-82
2022/02/16 03:46:59;;;;;;;33.47;17.55;;;7.20;99.90;;;;;;5126177;27;20067;-83
2022/02/16 03:49:25;;;;;;;40.55;18.27;;;7.20;99.90;;;;;;5093519;28;20047;-83
2022/02/16 03:51:51;;;;;;;36.35;19.63;;;7.20;99.90;;;;;;5068552;28;20069;-82
2022/02/16 03:54:17;;;;;;;37.47;19.45;;;7.20;99.90;;;;;;5092755;28;20082;-82
2022/02/16 03:56:43;;;;;;;37.85;19.80;;;7.20;99.90;;;;;;5125511;27;20044;-82
2022/02/16 03:59:10;;;;;;;32.83;19.58;;;7.30;99.90;;;;;;5086023;28;20158;-83
2022/02/16 04:01:35;;;;;;;34.72;19.00;;;7.30;99.90;;;;;;5085041;28;20067;-83
2022/02/16 04:04:01;;;;;;;31.65;19.10;;;7.30;99.90;;;;;;5112237;28;20128;-82
2022/02/16 04:06:27;;;;;;;30.83;17.90;;;7.30;99.90;;;;;;5083856;28;20406;-82
2022/02/16 04:08:52;;;;;;;35.47;19.60;;;7.80;99.90;;;;;;5082265;28;20475;-83
2022/02/16 04:11:20;;;;;;;29.30;18.27;;;7.30;99.90;;;;;;5128110;27;20035;-83
2022/02/16 04:13:47;;;;;;;34.25;18.13;;;7.30;99.90;;;;;;5073468;28;20109;-83
2022/02/16 04:16:14;;;;;;;30.95;17.58;;;7.30;99.90;;;;;;5081291;28;20046;-82
2022/02/16 04:18:41;;;;;;;32.03;17.80;;;7.30;99.90;;;;;;5092726;28;20123;-83
2022/02/16 04:21:08;;;;;;;40.17;17.73;;;8.00;99.90;;;;;;5124631;27;20437;-83
2022/02/16 04:23:35;;;;;;;33.38;18.15;;;7.40;99.90;;;;;;5124710;27;20108;-83
2022/02/16 04:26:01;;;;;;;24.98;17.05;;;7.50;99.90;;;;;;5092177;28;20145;-83
2022/02/16 04:28:27;;;;;;;29.17;17.20;;;7.50;99.90;;;;;;5090905;28;20067;-83
2022/02/16 04:30:53;;;;;;;26.73;16.95;;;7.60;99.90;;;;;;5089019;28;20088;-82
2022/02/16 04:33:19;;;;;;;27.35;16.90;;;7.60;99.90;;;;;;5077535;28;20055;-83
2022/02/16 04:35:46;;;;;;;27.08;16.42;;;7.50;99.90;;;;;;5125338;27;20050;-83
2022/02/16 04:38:12;;;;;;;28.65;16.05;;;8.00;99.90;;;;;;5109651;28;20035;-83
2022/02/16 04:40:38;;;;;;;29.58;17.08;;;7.50;99.90;;;;;;5128351;27;20032;-83
2022/02/16 04:43:05;;;;;;;25.42;16.73;;;7.50;99.90;;;;;;5094707;28;20035;-83
2022/02/16 04:45:32;;;;;;;24.60;15.35;;;7.50;99.90;;;;;;5069410;28;20117;-83
2022/02/16 04:47:59;;;;;;;31.90;15.60;;;7.80;99.90;;;;;;5068838;28;20122;-82
2022/02/16 04:50:25;;;;;;;28.73;15.80;;;7.50;99.90;;;;;;5090268;28;20082;-83
2022/02/16 04:52:54;;;;;;;27.52;14.98;;;7.60;99.90;;;;;;5092775;28;20194;-82
2022/02/16 04:55:21;;;;;;;25.05;15.52;;;7.60;99.90;;;;;;5073273;28;20108;-82
2022/02/16 04:57:47;;;;;;;24.45;16.02;;;7.90;99.90;;;;;;5110269;28;20135;-82
2022/02/16 05:00:13;;;;;;;24.05;14.60;;;7.60;99.90;;;;;;5123862;27;20127;-83
2022/02/16 05:02:39;;;;;;;25.30;14.77;;;7.60;99.90;;;;;;5127856;27;20095;-82
2022/02/16 05:05:08;;;;;;;24.02;15.60;;;7.60;99.90;;;;;;5094388;28;20079;-83
2022/02/16 05:07:34;;;;;;;27.60;16.63;;;7.60;99.90;;;;;;5122591;27;20078;-83
2022/02/16 05:10:00;;;;;;;27.15;14.55;;;7.60;99.90;;;;;;5102437;28;20042;-83
2022/02/16 05:12:26;;;;;;;24.55;15.65;;;7.70;99.90;;;;;;5127524;27;20039;-83
2022/02/16 05:14:52;;;;;;;28.90;16.63;;;7.70;99.90;;;;;;5089655;28;20062;-83
2022/02/16 05:17:17;;;;;;;21.38;13.88;;;7.70;99.90;;;;;;5123906;27;20085;-83
2022/02/16 05:19:44;;;;;;;23.85;14.20;;;7.70;99.90;;;;;;5076775;28;20044;-83
2022/02/16 05:22:10;;;;;;;22.50;14.40;;;7.70;99.90;;;;;;5093805;28;20482;-83
2022/02/16 05:24:36;;;;;;;20.58;13.40;;;8.20;99.90;;;;;;5074746;28;20071;-83
2022/02/16 05:27:02;;;;;;;21.77;14.05;;;7.80;99.90;;;;;;5126320;27;20032;-83
2022/02/16 05:29:28;;;;;;;19.23;12.60;;;7.80;99.90;;;;;;5092357;28;21871;-84
2022/02/16 05:31:54;;;;;;;24.30;13.20;;;8.10;99.90;;;;;;5123033;27;20112;-83
2022/02/16 05:34:19;;;;;;;19.88;13.50;;;8.00;99.90;;;;;;5072310;28;20052;-83
2022/02/16 05:36:46;;;;;;;20.45;12.68;;;7.80;99.90;;;;;;5076944;28;20463;-83
2022/02/16 05:39:12;;;;;;;17.60;12.05;;;7.80;99.90;;;;;;5091276;28;20085;-83
2022/02/16 05:41:37;;;;;;;20.35;12.30;;;7.80;99.90;;;;;;5092835;28;20039;-83
2022/02/16 05:44:03;;;;;;;24.73;12.52;;;7.80;99.90;;;;;;5126163;27;20059;-84
2022/02/16 05:46:29;;;;;;;20.02;10.98;;;7.80;99.90;;;;;;5095469;28;20074;-83
2022/02/16 05:48:55;;;;;;;17.15;10.05;;;8.00;99.90;;;;;;5092803;28;20063;-83
2022/02/16 05:51:21;;;;;;;20.63;11.20;;;8.10;99.90;;;;;;5093519;28;20040;-82
2022/02/16 05:53:46;;;;;;;16.27;10.57;;;7.80;99.90;;;;;;5092386;28;20489;-83
2022/02/16 05:56:12;;;;;;;12.73;9.07;;;7.90;99.90;;;;;;5126910;27;20039;-83
2022/02/16 05:58:38;;;;;;;12.10;9.15;;;7.90;99.90;;;;;;5127809;27;20058;-83
2022/02/16 06:01:04;;;;;;;12.10;9.52;;;7.80;99.90;;;;;;5099455;28;20048;-83
2022/02/16 06:03:30;;;;;;;14.65;8.40;;;7.80;99.90;;;;;;5082258;28;20403;-83
2022/02/16 06:05:56;;;;;;;12.52;8.65;;;7.90;99.90;;;;;;5113377;28;20483;-84
2022/02/16 06:08:22;;;;;;;13.85;9.50;;;8.20;99.90;;;;;;5121416;28;20043;-84
2022/02/16 06:10:52;;;;;;;14.77;9.43;;;8.00;99.90;;;;;;5100967;28;20528;-83
2022/02/16 06:14:11;;;;;;;;;;;;;;;;;;;;;
2022/02/16 06:17:27;;;;;;;15.20;9.73;;;7.80;99.90;;;;;;5107301;28;20043;-84
2022/02/16 06:20:47;;;;;;;13.07;10.45;;;7.90;99.90;;;;;;5107320;28;20063;-85
2022/02/16 06:23:37;;;;;;;15.15;10.55;;;7.70;99.90;;;;;;5028371;28;20035;-84
2022/02/16 06:26:02;;;;;;;15.23;11.02;;;8.40;99.90;;;;;;5028617;28;20040;-81
2022/02/16 06:28:28;;;;;;;15.48;10.93;;;7.90;99.90;;;;;;5039673;28;20049;-81
2022/02/16 06:30:56;;;;;;;18.77;10.90;;;8.50;99.90;;;;;;5028477;28;20087;-83
2022/02/16 06:33:27;;;;;;;13.48;9.57;;;8.40;99.90;;;;;;5038456;28;20060;-84
2022/02/16 06:35:53;;;;;;;12.63;9.25;;;8.80;99.90;;;;;;5022315;28;20496;-84
2022/02/16 06:38:19;;;;;;;17.27;8.73;;;8.30;99.90;;;;;;5030163;28;20526;-81
2022/02/16 06:40:46;;;;;;;14.30;9.43;;;8.10;99.90;;;;;;5021909;28;20132;-81
2022/02/16 06:43:14;;;;;;;11.80;7.97;;;8.60;99.90;;;;;;5010053;28;20455;-81
2022/02/16 06:45:41;;;;;;;10.98;8.18;;;8.50;99.90;;;;;;5013892;28;20424;-84
2022/02/16 06:48:10;;;;;;;11.00;7.45;;;8.80;99.90;;;;;;5031024;28;20041;-84
2022/02/16 06:50:36;;;;;;;8.57;6.40;;;8.90;99.90;;;;;;5030911;28;20365;-82
2022/02/16 06:53:02;;;;;;;10.98;8.07;;;8.10;99.90;;;;;;5030073;28;20111;-82
2022/02/16 06:55:28;;;;;;;9.85;7.80;;;8.10;99.90;;;;;;5031408;28;20044;-81
2022/02/16 06:57:57;;;;;;;9.95;6.80;;;8.70;99.90;;;;;;5103563;28;20519;-81
2022/02/16 07:00:32;;;;;;;9.00;7.13;;;7.50;99.90;;;;;;5111932;28;20039;-82
2022/02/16 07:02:58;;;;;;;8.43;6.70;;;8.10;99.90;;;;;;5072421;28;20063;-83
2022/02/16 07:05:23;;;;;;;7.82;6.10;;;8.90;99.90;;;;;;5107509;27;20488;-83
2022/02/16 07:07:49;;;;;;;7.05;5.82;;;8.30;99.90;;;;;;5072852;28;20032;-82
2022/02/16 07:10:25;;;;;;;6.32;5.70;;;8.30;99.90;;;;;;5103641;28;20120;-82
2022/02/16 07:12:51;;;;;;;7.15;5.45;;;8.20;99.90;;;;;;5075693;28;20059;-82
2022/02/16 07:15:17;;;;;;;7.10;5.50;;;8.30;99.90;;;;;;5093367;28;20050;-83
2022/02/16 07:17:48;;;;;;;6.88;5.47;;;8.30;99.90;;;;;;5104916;28;20053;-82
2022/02/16 07:20:17;;;;;;;7.75;5.60;;;8.30;99.90;;;;;;5068900;28;20086;-83
2022/02/16 07:22:48;;;;;;;6.30;5.15;;;8.30;99.90;;;;;;5074049;28;20040;-84
2022/02/16 07:25:16;;;;;;;5.57;4.88;;;9.20;99.90;;;;;;5055665;28;20043;-84
2022/02/16 07:27:42;;;;;;;4.90;4.40;;;8.40;99.90;;;;;;5089846;28;20044;-84
2022/02/16 07:30:12;;;;;;;4.30;3.55;;;8.50;99.90;;;;;;5090879;28;20115;-85
2022/02/16 07:32:42;;;;;;;4.30;3.90;;;8.50;99.90;;;;;;5096341;28;20036;-83
2022/02/16 07:35:10;;;;;;;4.35;3.95;;;8.70;99.90;;;;;;5105969;28;20054;-82
2022/02/16 07:37:36;;;;;;;3.50;3.05;;;9.30;99.90;;;;;;5092834;28;20044;-85
2022/02/16 07:40:04;;;;;;;5.30;3.63;;;9.40;99.90;;;;;;5070233;28;20479;-84
2022/02/16 07:42:33;;;;;;;4.10;3.70;;;8.60;99.90;;;;;;5110971;28;20049;-84
2022/02/16 07:45:37;;;;;;;3.45;3.00;;;8.90;99.90;;;;;;5089806;28;20047;-87
2022/02/16 07:48:03;;;;;;;5.13;3.20;;;8.70;99.90;;;;;;5107111;28;20089;-82
2022/02/16 07:50:29;;;;;;;5.60;2.97;;;8.80;99.90;;;;;;5092204;28;20039;-82
2022/02/16 07:53:01;;;;;;;5.55;2.80;;;9.40;99.90;;;;;;5090642;28;20427;-83
2022/02/16 07:55:27;;;;;;;2.70;2.47;;;8.80;99.90;;;;;;5088115;28;20512;-82
2022/02/16 07:57:58;;;;;;;6.22;3.05;;;8.90;99.90;;;;;;5068375;28;20394;-83
2022/02/16 08:00:25;;;;;;;2.90;2.47;;;9.00;99.90;;;;;;5089999;28;20048;-83
2022/02/16 08:02:50;;;;;;;6.35;2.95;;;8.90;99.90;;;;;;5092067;28;20058;-82
2022/02/16 08:05:16;;;;;;;4.65;2.85;;;9.00;99.90;;;;;;5092122;27;20117;-83
2022/02/16 08:07:42;;;;;;;2.70;2.50;;;9.00;99.90;;;;;;5081906;28;20524;-82
2022/02/16 08:10:08;;;;;;;3.28;2.33;;;9.00;99.90;;;;;;5088808;28;20071;-82
2022/02/16 08:12:43;;;;;;;4.22;2.40;;;9.00;99.90;;;;;;5104209;28;20432;-83
2022/02/16 08:15:08;;;;;;;;;;;9.10;99.90;;;;;;5094439;28;20079;-83
2022/02/16 08:17:34;;;;;;;3.28;2.40;;;9.10;99.90;;;;;;5109546;28;20029;-83
2022/02/16 08:20:00;;;;;;;3.65;2.00;;;9.10;99.90;;;;;;5079264;28;20428;-83
2022/02/16 08:22:28;;;;;;;2.22;2.03;;;9.20;99.90;;;;;;5090060;28;20408;-83
2022/02/16 08:24:57;;;;;;;1.27;1.17;;;9.20;99.90;;;;;;5100283;28;20088;-83
2022/02/16 08:27:22;;;;;;;1.85;1.70;;;9.30;99.90;;;;;;5091114;28;20043;-83
2022/02/16 08:29:48;;;;;;;2.33;2.13;;;9.30;99.90;;;;;;5100153;28;20040;-83
2022/02/16 08:32:14;;;;;;;2.60;2.05;;;9.20;99.90;;;;;;5097976;28;20101;-83
2022/02/16 08:34:40;;;;;;;2.08;1.60;;;9.30;99.90;;;;;;5086220;28;20053;-83
2022/02/16 08:37:06;;;;;;;1.90;1.80;;;10.30;99.90;;;;;;5085242;28;20079;-83
2022/02/16 08:39:32;;;;;;;1.02;1.02;;;9.40;99.90;;;;;;5080279;28;20101;-83
2022/02/16 08:41:58;;;;;;;2.13;1.20;;;9.50;99.90;;;;;;5089775;28;20482;-83
2022/02/16 08:44:24;;;;;;;3.20;1.20;;;9.40;99.90;;;;;;5114567;27;20052;-82
2022/02/16 08:46:51;;;;;;;1.15;1.13;;;9.90;99.90;;;;;;5076156;28;20044;-82
2022/02/16 08:49:17;;;;;;;1.75;1.40;;;9.40;99.90;;;;;;5095999;28;20357;-82
2022/02/16 08:51:43;;;;;;;4.07;1.58;;;9.50;99.90;;;;;;5066065;28;20044;-82
2022/02/16 08:54:09;;;;;;;1.73;1.63;;;9.50;99.90;;;;;;5104350;28;20051;-81
2022/02/16 08:56:35;;;;;;;2.75;1.83;;;9.60;99.90;;;;;;5107012;28;20115;-81
2022/02/16 08:59:02;;;;;;;3.10;1.98;;;9.60;99.90;;;;;;5067763;28;20722;-81
2022/02/16 09:01:32;;;;;;;3.60;2.28;;;9.50;99.90;;;;;;5091274;28;20185;-83
2022/02/16 09:04:05;;;;;;;4.72;2.80;;;9.70;99.90;;;;;;5061386;28;20114;-82
2022/02/16 09:06:31;;;;;;;9.05;3.70;;;9.60;99.90;;;;;;5086133;28;20037;-86
2022/02/16 09:08:57;;;;;;;9.05;3.30;;;9.70;99.90;;;;;;5078522;28;20870;-84
2022/02/16 09:11:23;;;;;;;12.20;3.53;;;9.70;99.90;;;;;;5083998;28;20385;-84
2022/02/16 09:13:49;;;;;;;12.82;4.03;;;10.00;99.90;;;;;;5089843;28;20340;-84
2022/02/16 09:16:17;;;;;;;15.73;3.40;;;9.70;99.90;;;;;;5067953;28;20056;-84
2022/02/16 09:18:43;;;;;;;12.40;3.60;;;9.90;99.90;;;;;;5086460;28;20348;-80
2022/02/16 09:21:09;;;;;;;19.58;4.00;;;10.00;99.90;;;;;;5122081;27;20044;-79
2022/02/16 09:23:36;;;;;;;16.48;4.20;;;10.00;99.90;;;;;;5086220;28;20047;-80
2022/02/16 09:26:06;;;;;;;10.93;3.00;;;10.10;99.90;;;;;;5063830;28;20044;-83
2022/02/16 09:28:33;;;;;;;15.82;3.85;;;10.20;99.90;;;;;;5067169;28;20047;-82
2022/02/16 09:31:01;;;;;;;22.58;3.53;;;10.20;99.90;;;;;;5117938;27;20052;-81
2022/02/16 09:33:27;;;;;;;18.63;3.30;;;10.30;99.90;;;;;;5083529;28;20048;-82
2022/02/16 09:35:54;;;;;;;14.45;3.42;;;10.30;99.90;;;;;;5110368;27;20056;-82
2022/02/16 09:38:20;;;;;;;14.40;2.80;;;10.40;99.90;;;;;;5081774;28;20074;-81
2022/02/16 09:40:48;;;;;;;17.88;2.83;;;10.50;99.90;;;;;;5065748;28;20214;-82
2022/02/16 09:43:23;;;;;;;17.08;2.83;;;10.50;99.90;;;;;;5097566;28;20226;-82
2022/02/16 09:45:55;;;;;;;19.00;3.33;;;10.60;99.90;;;;;;5064208;28;20153;-82
2022/02/16 09:48:22;;;;;;;13.20;2.30;;;10.70;99.90;;;;;;5076914;28;20453;-82
2022/02/16 09:50:48;;;;;;;11.93;2.40;;;10.80;99.90;;;;;;5061529;28;20063;-81
2022/02/16 09:53:14;;;;;;;24.15;3.70;;;10.80;99.90;;;;;;5082824;28;20112;-82
2022/02/16 09:55:44;;;;;;;15.15;2.30;;;10.90;99.90;;;;;;5088111;28;20047;-82
2022/02/16 09:58:10;;;;;;;21.08;3.00;;;11.80;99.90;;;;;;5071248;28;20062;-81
2022/02/16 10:00:36;;;;;;;17.00;2.80;;;11.10;99.90;;;;;;5115376;27;20493;-80
2022/02/16 10:03:10;;;;;;;14.90;2.33;;;11.20;99.90;;;;;;5070261;28;20043;-79
2022/02/16 10:05:37;;;;;;;12.70;2.10;;;11.30;99.90;;;;;;5103170;28;20487;-83
2022/02/16 10:08:02;;;;;;;21.67;2.20;;;11.30;99.90;;;;;;5088460;28;20044;-82
2022/02/16 10:10:28;;;;;;;21.35;2.72;;;11.50;99.90;;;;;;5122735;28;20044;-82
2022/02/16 10:12:56;;;;;;;12.52;2.33;;;11.60;99.90;;;;;;5123347;28;20422;-82
2022/02/16 10:15:48;;;;;;;12.68;2.10;;;11.60;99.90;;;;;;5085600;28;20556;-82
2022/02/16 10:18:15;;;;;;;21.42;2.58;;;11.60;99.90;;;;;;5091036;28;20044;-83
2022/02/16 10:20:45;;;;;;;15.10;2.30;;;11.70;99.90;;;;;;5093712;28;20126;-83
2022/02/16 10:23:11;;;;;;;15.05;2.65;;;11.70;99.90;;;;;;5079245;28;20169;-83
2022/02/16 10:25:46;;;;;;;16.05;2.83;;;11.70;99.90;;;;;;5088331;28;20059;-83
2022/02/16 10:28:18;;;;;;;21.77;2.88;;;11.70;99.90;;;;;;5082946;28;20109;-83
2022/02/16 10:31:00;;;;;;;15.15;2.40;;;11.90;99.90;;;;;;5106452;28;20051;-83
2022/02/16 10:33:55;;;;;;;24.05;2.65;;;11.80;99.90;;;;;;5118761;27;20135;-82
2022/02/16 10:36:25;;;;;;;17.90;2.97;;;12.00;99.90;;;;;;5072895;28;20087;-83
2022/02/16 10:39:00;;;;;;;15.10;2.67;;;12.00;99.90;;;;;;5063657;28;20075;-81
2022/02/16 10:41:30;;;;;;;12.68;2.00;;;11.90;99.90;;;;;;5069341;28;20072;-83
2022/02/16 10:43:56;;;;;;;14.57;2.45;;;12.00;99.90;;;;;;5093114;28;20039;-82
2022/02/16 10:46:27;;;;;;;15.77;2.03;;;12.20;99.90;;;;;;5119989;27;20047;-83
2022/02/16 10:49:25;;;;;;;16.48;3.00;;;12.00;99.90;;;;;;5101451;28;20126;-82
2022/02/16 10:52:04;;;;;;;11.35;2.00;;;11.80;99.90;;;;;;4990381;28;20674;-81
2022/02/16 10:54:30;;;;;;;18.27;2.65;;;11.80;99.90;;;;;;5012024;28;20432;-83
2022/02/16 10:56:56;;;;;;;14.35;2.70;;;12.00;99.90;;;;;;5012348;28;20064;-81
2022/02/16 10:59:21;;;;;;;14.95;2.70;;;12.40;99.90;;;;;;5028495;28;20481;-83
2022/02/16 11:01:47;;;;;;;9.82;1.83;;;12.00;99.90;;;;;;4995378;28;20057;-83
2022/02/16 11:04:15;;;;;;;9.60;1.70;;;11.90;99.90;;;;;;4991037;28;20050;-83
2022/02/16 11:06:47;;;;;;;19.58;2.35;;;11.90;99.90;;;;;;4989830;28;20084;-79
2022/02/16 11:09:24;;;;;;;9.25;1.77;;;11.90;99.90;;;;;;4991149;28;20065;-81
2022/02/16 11:11:55;;;;;;;13.15;2.03;;;12.00;99.90;;;;;;4992999;28;20049;-80
2022/02/16 11:14:28;;;;;;;9.32;1.70;;;12.20;99.90;;;;;;4993474;28;20041;-83
2022/02/16 11:17:00;;;;;;;11.32;2.08;;;12.00;99.90;;;;;;4975022;28;20050;-79
2022/02/16 11:19:37;;;;;;;11.52;2.00;;;12.00;99.90;;;;;;5005799;28;20042;-85
2022/02/16 11:22:18;;;;;;;14.60;2.17;;;12.00;99.90;;;;;;4978320;28;20145;-83
2022/02/16 11:24:46;;;;;;;15.10;2.10;;;12.00;99.90;;;;;;5006841;28;20046;-81
2022/02/16 11:27:29;;;;;;;14.30;1.85;;;12.00;99.90;;;;;;4999118;28;20033;-82
2022/02/16 11:29:57;;;;;;;9.30;1.95;;;12.10;99.90;;;;;;5087913;28;20480;-81
2022/02/16 11:32:38;;;;;;;11.50;1.83;;;12.10;99.90;;;;;;5104564;28;20044;-80
2022/02/16 11:35:24;;;;;;;14.77;2.20;;;12.10;99.90;;;;;;5069012;28;20091;-82
2022/02/16 11:38:02;;;;;;;;;;;12.00;99.90;;;;;;5101994;28;20090;-82
2022/02/16 11:40:41;;;;;;;10.38;1.67;;;12.00;99.90;;;;;;5069994;28;19945;-81
2022/02/16 11:43:10;;;;;;;11.45;2.20;;;12.00;99.90;;;;;;5069842;28;20508;-77
2022/02/16 11:45:38;;;;;;;11.38;1.88;;;12.00;99.90;;;;;;5083985;28;20051;-77
2022/02/16 11:48:05;;;;;;;11.55;2.15;;;12.00;99.90;;;;;;5051739;28;20083;-81
2022/02/16 11:50:32;;;;;;;13.45;1.95;;;12.00;99.90;;;;;;5072332;28;20040;-79
2022/02/16 11:53:00;;;;;;;10.95;1.88;;;12.00;99.90;;;;;;5083085;28;20108;-79
2022/02/16 11:55:27;;;;;;;12.35;2.05;;;12.10;99.90;;;;;;5048952;28;20048;-83
2022/02/16 11:57:57;;;;;;;9.77;1.80;;;11.80;99.90;;;;;;5066011;28;20050;-82
2022/02/16 12:00:26;;;;;;;10.55;2.10;;;12.00;99.90;;;;;;5055914;28;20093;-81
2022/02/16 12:02:55;;;;;;;12.02;1.83;;;12.00;99.90;;;;;;5068348;28;20466;-76
2022/02/16 12:05:39;;;;;;;13.07;1.88;;;12.10;99.90;;;;;;5086771;28;20044;-77
2022/02/16 12:08:13;;;;;;;12.40;2.30;;;12.00;99.90;;;;;;5068174;28;20033;-80
2022/02/16 12:10:53;;;;;;;10.77;1.93;;;11.90;99.90;;;;;;5054664;28;20042;-78
2022/02/16 12:13:29;;;;;;;10.88;1.75;;;11.90;99.90;;;;;;5097848;28;20109;-81
2022/02/16 12:15:57;;;;;;;13.38;2.20;;;11.90;99.90;;;;;;5048698;28;20039;-79
2022/02/16 12:18:24;;;;;;;13.15;2.53;;;11.80;99.90;;;;;;5070685;28;20052;-83
2022/02/16 12:20:49;;;;;;;20.25;2.55;;;11.70;99.90;;;;;;5057464;28;20067;-84
2022/02/16 12:23:15;;;;;;;21.25;3.08;;;11.70;99.90;;;;;;5072006;28;20102;-83
2022/02/16 12:25:42;;;;;;;24.05;3.30;;;11.70;99.90;;;;;;5049160;28;20103;-84
2022/02/16 12:28:08;;;;;;;15.68;2.78;;;11.60;99.90;;;;;;5073399;28;20389;-78
2022/02/16 12:30:41;;;;;;;16.80;2.67;;;11.80;99.90;;;;;;5056780;28;20055;-78
2022/02/16 12:33:24;;;;;;;17.80;3.05;;;11.60;99.90;;;;;;5079084;28;20043;-82
2022/02/16 12:35:51;;;;;;;18.25;2.72;;;11.60;99.90;;;;;;5085624;28;20082;-79
2022/02/16 12:38:27;;;;;;;17.02;3.03;;;11.60;99.90;;;;;;5097683;28;20062;-84
2022/02/16 12:40:55;;;;;;;16.85;2.97;;;11.60;99.90;;;;;;5086012;28;20119;-84
2022/02/16 12:43:21;;;;;;;18.10;3.08;;;11.60;99.90;;;;;;5058772;28;20056;-84
2022/02/16 12:45:48;;;;;;;16.60;2.75;;;11.70;99.90;;;;;;5085458;28;20368;-81
2022/02/16 12:48:16;;;;;;;18.75;2.70;;;11.70;99.90;;;;;;5043387;28;20040;-82
2022/02/16 12:50:42;;;;;;;20.83;3.40;;;11.70;99.90;;;;;;5065631;28;20048;-80